createdAt,value
2023-01-13T00:03:10.482Z,8.98
2023-01-13T00:13:19.402Z,8.23
2023-01-13T00:23:28.341Z,8.24
2023-01-13T00:33:37.284Z,8.57
2023-01-13T00:43:46.291Z,7.95
2023-01-13T00:53:55.593Z,8.9
2023-01-13T01:04:04.583Z,8.77
2023-01-13T01:14:13.416Z,8.81
2023-01-13T01:24:21.868Z,8.65
2023-01-13T01:34:30.431Z,8.34
2023-01-13T01:44:38.794Z,8.37
2023-01-13T01:54:47.579Z,8.61
2023-01-13T02:04:55.925Z,7.99
2023-01-13T02:15:04.362Z,7.88
2023-01-13T02:25:12.772Z,7.95
2023-01-13T02:35:22.225Z,7.64
2023-01-13T02:45:30.547Z,8.03
2023-01-13T02:55:38.856Z,7.81
2023-01-13T03:05:46.868Z,7.52
2023-01-13T03:15:54.807Z,6.97
2023-01-13T03:26:02.707Z,7.05
2023-01-13T03:36:11.954Z,7.91
2023-01-13T03:46:20.090Z,7.21
2023-01-13T03:56:27.979Z,7.16
2023-01-13T04:06:36.072Z,7.46
2023-01-13T04:16:43.575Z,7.73
2023-01-13T04:26:51.524Z,8.26
2023-01-13T04:36:59.512Z,8.16
2023-01-13T04:47:07.440Z,9.15
2023-01-13T04:57:15.435Z,8.73
2023-01-13T05:07:23.249Z,8.97
2023-01-13T05:17:31.174Z,9.26
2023-01-13T05:27:39.309Z,9.78
2023-01-13T05:37:47.317Z,10.55
2023-01-13T05:47:55.280Z,9.76
2023-01-13T05:58:03.278Z,10.83
2023-01-13T06:08:11.283Z,9.11
2023-01-13T06:18:19.223Z,10.18
2023-01-13T06:28:28.732Z,9.01
2023-01-13T06:38:36.734Z,8.96
2023-01-13T06:48:44.887Z,8.2
2023-01-13T06:58:53.389Z,8.26
2023-01-13T07:09:07.852Z,8.22
2023-01-13T07:19:06.819Z,10.28
2023-01-13T07:29:15.894Z,9.87
2023-01-13T07:39:25.279Z,11.32
2023-01-13T07:49:33.556Z,10.16
2023-01-13T07:59:46.425Z,10.09
2023-01-13T08:09:44.729Z,9.98
2023-01-13T08:19:54.686Z,9.95
2023-01-13T08:30:03.029Z,8.85
2023-01-13T08:40:11.163Z,8.43
2023-01-13T08:50:19.105Z,9.51
2023-01-13T09:00:30.935Z,8.87
2023-01-13T09:10:31.802Z,7.75
2023-01-13T09:20:29.805Z,7.2
2023-01-13T09:30:37.820Z,7.39
2023-01-13T09:40:45.742Z,8.24
2023-01-13T09:50:53.675Z,7.53
2023-01-13T10:01:01.726Z,8.8
2023-01-13T10:11:09.880Z,8.87
2023-01-13T10:21:18.337Z,9.28
2023-01-13T10:31:26.339Z,9.04
2023-01-13T10:41:35.648Z,9.59
2023-01-13T10:51:42.746Z,9.61
2023-01-13T11:01:53.788Z,9.4
2023-01-13T11:12:01.165Z,8.73
2023-01-13T11:22:09.081Z,8.71
2023-01-13T11:32:16.970Z,9.97
2023-01-13T11:42:25.052Z,8.79
2023-01-13T11:52:33.032Z,8.66
2023-01-13T12:02:41.274Z,8.81
2023-01-13T12:12:49.265Z,9.31
2023-01-13T12:22:57.809Z,9.04
2023-01-13T12:33:05.699Z,8.18
2023-01-13T12:43:13.665Z,8.32
2023-01-13T12:53:22.258Z,8.54
2023-01-13T13:03:29.714Z,10.35
2023-01-13T13:13:37.713Z,9.16
2023-01-13T13:23:45.781Z,8.6
2023-01-13T13:33:55.445Z,7.89
2023-01-13T13:44:04.377Z,7.87
2023-01-13T13:54:12.316Z,8.2
2023-01-13T14:04:20.473Z,7.96
2023-01-13T14:14:28.519Z,6.58
2023-01-13T14:24:36.691Z,6.36
2023-01-13T14:34:44.778Z,5.42
2023-01-13T14:44:55.643Z,8.74
2023-01-13T14:55:05.793Z,6.96
2023-01-13T15:05:02.677Z,7.01
2023-01-13T15:15:10.109Z,5.55
2023-01-13T15:25:18.212Z,5.06
2023-01-13T15:35:26.307Z,6.37
2023-01-13T15:45:34.428Z,7.92
2023-01-13T15:55:42.831Z,5.88
2023-01-13T16:05:51.032Z,6.82
2023-01-13T16:15:58.505Z,8.6
2023-01-13T16:26:06.691Z,7.76
2023-01-13T16:36:13.113Z,9.52
2023-01-13T16:46:21.146Z,9.29
2023-01-13T16:56:29.014Z,9.31
2023-01-13T17:06:36.934Z,8.93
2023-01-13T17:16:45.103Z,8.99
2023-01-13T17:26:53.117Z,9.14
2023-01-13T17:37:01.557Z,6.77
2023-01-13T17:47:09.580Z,8.18
2023-01-13T17:57:17.530Z,6.73
2023-01-13T18:07:29.249Z,7.07
2023-01-13T18:17:28.537Z,9.33
2023-01-13T18:27:40.836Z,8.72
2023-01-13T18:37:50.318Z,10.13
2023-01-13T18:57:56.677Z,10.97
2023-01-13T19:07:56.452Z,11.57
2023-01-13T19:18:14.389Z,13.36
2023-01-13T19:28:13.575Z,14.14
2023-01-13T19:38:44.454Z,16.46
2023-01-13T19:48:40.154Z,15.26
2023-01-13T19:58:42.182Z,13.49
2023-01-13T20:08:42.984Z,14.11
2023-01-13T20:18:48.947Z,13.03
2023-01-13T20:28:54.150Z,12.15
2023-01-13T20:38:54.280Z,14.29
2023-01-13T20:48:54.737Z,14.7
2023-01-13T20:58:53.161Z,18.42
2023-01-13T21:09:01.356Z,14.7
2023-01-13T21:19:11.607Z,12.13
2023-01-13T21:29:09.827Z,12.75
2023-01-13T21:39:17.907Z,14.17
2023-01-13T21:49:27.049Z,14.06
2023-01-13T21:59:36.444Z,12.74
2023-01-13T22:09:44.481Z,12.24
2023-01-13T22:19:52.588Z,12.82
2023-01-13T22:30:00.723Z,12.65
2023-01-13T22:40:08.812Z,12.5
2023-01-13T22:50:16.694Z,13.14
2023-01-13T23:00:24.553Z,12.7
2023-01-13T23:10:33.724Z,12.89
2023-01-13T23:20:41.805Z,12.86
2023-01-13T23:30:49.792Z,13.26
2023-01-13T23:40:57.841Z,12.8
2023-01-13T23:51:05.860Z,12.74
